Time;durP1;ratioP1;P1;durP2;ratioP2;P2;SDS_P1;SDS_P2;PMS_P1;PMS_P2;Temp;Humidity;BMP_temperature;BMP_pressure;BME280_temperature;BME280_humidity;BME280_pressure;Samples;Min_cycle;Max_cycle;Signal;HPM_P1;HPM_P2
2022/07/04 00:00:10;;;;;;;13.60;12.25;;;;;;;21.11;71.03;93111.41;5002486;28;20185;-74
2022/07/04 00:02:38;;;;;;;13.48;12.38;;;;;;;21.05;71.26;93104.75;5004640;28;20286;-74
2022/07/04 00:05:04;;;;;;;13.52;12.43;;;;;;;20.98;69.23;93098.44;5004885;28;20224;-76
2022/07/04 00:07:29;;;;;;;12.95;11.85;;;;;;;21.23;67.57;93092.81;5005615;28;20220;-75
2022/07/04 00:09:54;;;;;;;13.13;12.05;;;;;;;20.90;70.71;93094.75;5004341;28;20847;-74
2022/07/04 00:12:20;;;;;;;13.00;11.98;;;;;;;20.87;72.03;93107.91;5004957;28;20226;-74
2022/07/04 00:14:45;;;;;;;14.13;13.02;;;;;;;20.80;72.90;93105.78;5005234;28;20225;-74
2022/07/04 00:17:11;;;;;;;13.45;12.40;;;;;;;20.79;73.30;93116.75;5006353;28;20224;-74
2022/07/04 00:19:36;;;;;;;14.48;13.27;;;;;;;20.46;73.39;93067.13;5004402;28;20182;-76
2022/07/04 00:22:02;;;;;;;13.88;12.82;;;;;;;20.71;73.72;93118.38;5003064;28;20233;-75
2022/07/04 00:24:27;;;;;;;13.77;12.60;;;;;;;20.50;74.46;93099.84;5004085;28;20193;-74
2022/07/04 00:26:53;;;;;;;13.32;12.00;;;;;;;20.42;75.19;93108.66;5003660;28;20222;-74
2022/07/04 00:29:18;;;;;;;15.02;13.70;;;;;;;20.33;76.36;93109.84;5004429;28;20195;-74
2022/07/04 00:31:44;;;;;;;15.45;13.93;;;;;;;20.46;75.51;93104.28;5002222;28;20241;-74
2022/07/04 00:34:09;;;;;;;14.68;13.52;;;;;;;20.41;75.40;93098.38;5005032;28;20196;-74
2022/07/04 00:36:35;;;;;;;15.82;14.35;;;;;;;20.43;75.99;93096.19;5002091;28;20286;-76
2022/07/04 00:39:00;;;;;;;14.38;12.95;;;;;;;20.34;76.26;93092.84;5003790;28;20181;-76
2022/07/04 00:41:26;;;;;;;14.85;13.32;;;;;;;20.30;76.33;93094.59;5005398;28;20226;-74
2022/07/04 00:44:06;;;;;;;13.73;12.63;;;;;;;20.19;76.69;93099.53;5005071;28;20198;-75
2022/07/04 00:46:32;;;;;;;15.05;13.65;;;;;;;20.14;76.54;93091.75;5001296;28;20230;-75
2022/07/04 00:48:58;;;;;;;14.02;13.00;;;;;;;20.04;77.54;93092.13;5004811;28;20210;-75
2022/07/04 00:51:24;;;;;;;16.15;14.55;;;;;;;19.98;77.66;93087.34;5003871;28;20222;-74
2022/07/04 00:53:54;;;;;;;15.93;14.52;;;;;;;19.89;78.04;93070.75;5003404;28;20187;-74
2022/07/04 00:56:21;;;;;;;14.68;13.48;;;;;;;19.80;78.13;93065.50;5006493;28;20230;-74
2022/07/04 00:58:46;;;;;;;13.80;12.70;;;;;;;19.76;78.67;93066.47;5003138;28;20188;-75
2022/07/04 01:01:12;;;;;;;14.52;13.32;;;;;;;19.95;78.00;93088.00;5002833;28;20286;-75
2022/07/04 01:03:37;;;;;;;14.37;13.17;;;;;;;19.92;78.24;93086.00;5005973;28;20186;-74
2022/07/04 01:06:04;;;;;;;15.05;13.80;;;;;;;19.79;78.67;93084.38;5002214;28;20737;-74
2022/07/04 01:08:29;;;;;;;14.82;13.52;;;;;;;19.86;79.22;93082.75;5004897;28;20217;-76
2022/07/04 01:10:54;;;;;;;14.40;13.00;;;;;;;19.80;79.48;93084.06;5003948;28;20234;-75
2022/07/04 01:13:24;;;;;;;14.77;13.57;;;;;;;19.72;80.11;93074.28;5004810;28;20191;-75
2022/07/04 01:15:50;;;;;;;16.13;14.53;;;;;;;19.80;79.46;93078.75;5003513;28;20347;-76
2022/07/04 01:18:16;;;;;;;14.80;13.60;;;;;;;19.45;80.16;93064.19;5005148;28;20179;-75
2022/07/04 01:20:42;;;;;;;14.90;13.60;;;;;;;19.61;79.85;93078.41;5004429;28;20289;-75
2022/07/04 01:23:08;;;;;;;15.37;13.67;;;;;;;19.38;80.81;93082.47;5003227;28;20194;-75
2022/07/04 01:25:33;;;;;;;15.53;14.33;;;;;;;19.33;81.41;93061.44;5003011;28;20250;-75
2022/07/04 01:28:00;;;;;;;15.80;14.50;;;;;;;19.48;81.49;93079.44;5003052;28;20202;-74
2022/07/04 01:30:26;;;;;;;15.47;14.33;;;;;;;19.35;81.63;93083.09;5002064;28;20220;-74
2022/07/04 01:32:52;;;;;;;14.73;13.57;;;;;;;19.31;81.90;93076.91;5000342;28;20267;-74
2022/07/04 01:35:17;;;;;;;14.87;13.40;;;;;;;19.17;82.25;93053.25;5005200;28;20193;-74
2022/07/04 01:37:42;;;;;;;15.37;14.17;;;;;;;18.91;82.71;93049.22;5001994;28;20234;-75
2022/07/04 01:40:08;;;;;;;16.07;14.60;;;;;;;19.11;81.90;93069.66;5002400;28;20196;-74
2022/07/04 01:42:34;;;;;;;15.07;13.73;;;;;;;19.19;81.81;93071.50;5001433;28;20938;-75
2022/07/04 01:44:59;;;;;;;15.30;14.00;;;;;;;19.27;81.89;93078.59;5003209;28;20210;-75
2022/07/04 01:47:25;;;;;;;15.60;14.30;;;;;;;19.15;81.86;93078.50;5000392;28;20234;-75
2022/07/04 01:49:50;;;;;;;16.13;14.53;;;;;;;19.11;81.17;93048.50;5002384;28;20189;-75
2022/07/04 01:52:16;;;;;;;16.20;14.73;;;;;;;19.25;81.94;93077.38;5003687;28;20229;-73
2022/07/04 01:54:41;;;;;;;14.53;13.33;;;;;;;19.27;81.41;93094.47;4986041;28;20189;-74
2022/07/04 01:57:07;;;;;;;15.60;14.30;;;;;;;19.14;82.35;93095.50;5000952;28;20248;-76
2022/07/04 02:02:16;;;;;;;13.97;12.60;;;;;;;19.12;81.22;93089.72;4999947;28;20245;-75
2022/07/04 02:04:42;;;;;;;14.60;13.40;;;;;;;19.21;80.68;93079.88;5000468;28;20261;-77
2022/07/04 02:07:07;;;;;;;14.10;13.00;;;;;;;19.21;81.07;93090.47;5000328;28;20263;-76
2022/07/04 02:09:33;;;;;;;14.80;13.70;;;;;;;18.88;81.83;93055.13;5002310;28;20251;-76
2022/07/04 02:14:43;;;;;;;15.83;14.60;;;;;;;19.16;81.39;93088.78;5001331;28;20286;-76
2022/07/04 02:17:09;;;;;;;14.70;13.43;;;;;;;18.91;81.45;93043.91;5001002;28;20259;-76
2022/07/04 02:19:35;;;;;;;14.77;13.57;;;;;;;19.08;82.05;93096.78;5002416;28;20188;-77
2022/07/04 02:22:00;;;;;;;15.10;13.70;;;;;;;19.07;81.58;93085.41;5004230;28;20246;-77
2022/07/04 02:24:26;;;;;;;13.93;12.57;;;;;;;19.01;82.16;93097.25;5005036;28;20197;-76
2022/07/04 02:26:51;;;;;;;14.43;13.10;;;;;;;18.77;82.84;93069.81;5002301;28;20238;-76
2022/07/04 02:29:17;;;;;;;14.13;12.93;;;;;;;18.86;83.04;93081.13;5001443;28;20194;-76
2022/07/04 02:31:43;;;;;;;15.50;14.30;;;;;;;18.77;83.34;93078.50;5001398;28;20231;-76
2022/07/04 02:34:08;;;;;;;14.30;13.20;;;;;;;18.60;84.28;93088.38;5001651;28;20235;-76
2022/07/04 02:36:34;;;;;;;15.10;13.97;;;;;;;18.73;84.48;93098.75;5001611;28;20237;-77
2022/07/04 02:38:59;;;;;;;18.87;14.17;;;;;;;18.52;84.92;93066.13;5002185;28;20189;-76
2022/07/04 02:41:25;;;;;;;14.37;13.07;;;;;;;18.83;84.56;93097.66;4999245;28;20253;-75
2022/07/04 02:43:51;;;;;;;14.57;13.40;;;;;;;18.62;84.66;93084.31;5001069;28;20189;-76
2022/07/04 02:46:16;;;;;;;14.30;13.10;;;;;;;18.71;84.60;93087.72;4997795;28;20244;-76
2022/07/04 02:48:41;;;;;;;13.80;12.70;;;;;;;18.56;85.52;93108.59;4999618;28;20197;-76
2022/07/04 02:51:07;;;;;;;14.83;13.47;;;;;;;18.60;85.66;93115.59;5001026;28;20259;-77
2022/07/04 02:53:32;;;;;;;14.60;13.27;;;;;;;18.65;85.54;93112.00;4999246;28;20203;-76
2022/07/04 02:55:58;;;;;;;16.27;14.60;;;;;;;18.55;84.67;93091.19;4986649;28;20232;-76
2022/07/04 02:58:23;;;;;;;16.33;14.67;;;;;;;18.56;85.08;93105.97;4999956;28;20193;-76
2022/07/04 03:00:48;;;;;;;14.73;13.50;;;;;;;18.78;84.24;93113.69;5001273;28;20253;-75
2022/07/04 03:03:14;;;;;;;16.23;13.33;;;;;;;18.60;84.42;93096.31;5001627;28;20192;-76
2022/07/04 03:05:39;;;;;;;15.80;14.20;;;;;;;18.83;83.33;93121.47;4999766;28;20218;-75
2022/07/04 03:08:05;;;;;;;14.43;13.23;;;;;;;18.81;82.92;93115.69;4991375;28;20263;-76
2022/07/04 03:10:30;;;;;;;13.97;12.87;;;;;;;19.02;81.47;93127.13;5001831;28;20192;-77
2022/07/04 03:12:55;;;;;;;13.87;12.83;;;;;;;18.93;80.50;93076.13;5001898;28;20180;-76
2022/07/04 03:15:21;;;;;;;13.20;12.10;;;;;;;19.75;78.13;93116.03;5000286;28;20198;-77
2022/07/04 03:17:46;;;;;;;14.00;12.80;;;;;;;20.00;76.88;93122.28;4999643;28;20307;-76
2022/07/04 03:20:12;;;;;;;13.03;12.03;;;;;;;20.53;74.61;93128.38;5002781;28;20273;-75
2022/07/04 03:22:37;;;;;;;13.70;12.40;;;;;;;20.79;72.27;93103.47;5001096;28;20233;-77
2022/07/04 03:25:05;;;;;;;13.67;12.57;;;;;;;21.05;71.79;93141.16;5001479;28;20221;-76
2022/07/04 03:27:30;;;;;;;13.40;12.33;;;;;;;20.94;71.49;93130.16;5001050;28;20238;-75
2022/07/04 03:29:55;;;;;;;13.30;12.02;;;;;;;20.59;73.40;93140.34;4999068;28;20764;-76
2022/07/04 03:32:21;;;;;;;14.00;12.70;;;;;;;20.12;75.79;93141.66;4999883;28;20230;-77
2022/07/04 03:34:46;;;;;;;14.83;13.63;;;;;;;20.42;74.78;93137.84;5001693;28;20171;-77
2022/07/04 03:37:11;;;;;;;14.02;12.32;;;;;;;20.83;72.77;93141.50;5003687;28;20284;-76
2022/07/04 03:39:37;;;;;;;12.38;11.57;;;;;;;21.23;71.12;93118.63;5002492;28;20296;-77
2022/07/04 03:42:02;;;;;;;12.65;11.65;;;;;;;22.07;67.61;93123.88;5002386;28;20217;-77
2022/07/04 03:44:28;;;;;;;13.38;12.38;;;;;;;22.25;66.42;93119.84;5003933;28;20191;-76
2022/07/04 03:46:53;;;;;;;14.02;12.52;;;;;;;22.57;65.52;93110.88;5003352;28;20289;-77
2022/07/04 03:49:18;;;;;;;12.30;11.40;;;;;;;22.45;66.97;93129.53;5002780;28;20203;-77
2022/07/04 03:51:44;;;;;;;12.63;11.65;;;;;;;22.07;68.71;93131.88;5004996;28;20223;-76
2022/07/04 03:54:09;;;;;;;12.30;11.40;;;;;;;21.60;70.96;93125.47;5005535;28;20194;-77
2022/07/04 03:56:34;;;;;;;14.13;12.93;;;;;;;21.52;71.43;93119.19;5001694;28;20217;-76
2022/07/04 03:59:00;;;;;;;13.40;12.25;;;;;;;22.59;66.90;93134.47;5002660;28;20211;-76
2022/07/04 04:01:25;;;;;;;12.93;11.75;;;;;;;23.04;63.14;93129.59;5002493;28;20232;-76
2022/07/04 04:06:35;;;;;;;13.00;12.00;;;;;;;21.17;67.92;93128.66;5003266;28;20264;-76
2022/07/04 04:09:00;;;;;;;13.75;12.50;;;;;;;20.85;70.13;93113.56;5005672;28;20230;-76
2022/07/04 04:11:26;;;;;;;13.48;12.18;;;;;;;21.75;68.73;93117.63;5005583;28;20226;-76
2022/07/04 04:13:51;;;;;;;14.23;12.90;;;;;;;22.42;65.80;93114.22;5005315;28;20184;-76
2022/07/04 04:16:17;;;;;;;12.35;11.45;;;;;;;22.72;63.83;93120.78;5002696;28;20276;-77
2022/07/04 04:18:42;;;;;;;14.18;13.05;;;;;;;22.52;64.44;93119.13;5003128;28;20997;-77
2022/07/04 04:21:07;;;;;;;13.23;11.98;;;;;;;21.89;64.75;93101.31;5004263;28;20226;-76
2022/07/04 04:23:33;;;;;;;12.32;11.43;;;;;;;21.95;65.80;93126.56;5003963;28;20190;-76
2022/07/04 04:25:58;;;;;;;11.25;10.45;;;;;;;22.00;64.10;93129.78;5002292;28;20257;-76
2022/07/04 04:28:24;;;;;;;10.60;9.70;;;;;;;21.91;63.88;93131.78;5004261;28;20205;-76
2022/07/04 04:30:52;;;;;;;10.52;9.93;;;;;;;21.65;65.31;93141.22;5006086;28;20228;-76
2022/07/04 04:33:17;;;;;;;11.80;10.80;;;;;;;21.88;62.35;93129.78;5005330;28;20191;-76
2022/07/04 04:35:42;;;;;;;11.70;10.30;;;;;;;22.26;61.91;93131.25;5003534;28;20233;-76
2022/07/04 04:38:08;;;;;;;10.13;9.43;;;;;;;23.26;57.99;93137.81;5001596;28;20189;-76
2022/07/04 04:40:33;;;;;;;11.25;10.35;;;;;;;23.55;57.49;93156.03;5003935;28;20187;-76
2022/07/04 04:42:59;;;;;;;11.85;10.73;;;;;;;22.57;60.25;93132.16;5006995;28;20196;-77
2022/07/04 04:45:24;;;;;;;10.77;10.07;;;;;;;22.09;61.99;93143.72;4986576;28;20937;-77
2022/07/04 04:47:50;;;;;;;11.90;10.95;;;;;;;22.34;61.60;93156.94;5004938;28;20193;-76
2022/07/04 04:50:15;;;;;;;11.52;10.63;;;;;;;22.52;61.31;93153.72;5003439;28;20204;-76
2022/07/04 04:52:41;;;;;;;11.15;10.13;;;;;;;22.59;60.72;93151.22;5002326;28;20221;-74
2022/07/04 04:55:07;;;;;;;10.38;9.57;;;;;;;22.49;60.02;93154.34;5004726;28;20186;-71
2022/07/04 04:57:33;;;;;;;10.73;9.77;;;;;;;22.79;59.10;93152.13;5005074;28;20264;-72
2022/07/04 04:59:58;;;;;;;11.60;10.75;;;;;;;22.82;58.28;93143.50;5004869;28;20184;-72
2022/07/04 05:02:24;;;;;;;12.00;11.07;;;;;;;22.51;60.02;93154.81;5006606;28;20228;-72
2022/07/04 05:04:49;;;;;;;13.05;12.05;;;;;;;22.77;59.62;93147.16;5004758;28;20223;-72
2022/07/04 05:07:15;;;;;;;11.38;10.48;;;;;;;22.14;62.70;93150.69;5002260;28;20233;-72
2022/07/04 05:09:41;;;;;;;11.35;10.55;;;;;;;22.81;59.76;93148.03;5004515;28;20198;-72
2022/07/04 05:12:06;;;;;;;10.38;9.52;;;;;;;23.18;58.48;93154.72;5006454;28;20221;-70
2022/07/04 05:14:32;;;;;;;11.25;10.35;;;;;;;24.87;52.54;93163.91;5004985;28;20183;-72
2022/07/04 05:16:57;;;;;;;14.63;10.50;;;;;;;27.49;45.97;93152.00;5005469;28;20228;-70
2022/07/04 05:19:22;;;;;;;11.10;10.20;;;;;;;27.31;44.84;93162.59;5005615;28;20211;-71
2022/07/04 05:21:48;;;;;;;10.95;10.05;;;;;;;25.97;48.40;93165.44;4999199;28;20233;-72
2022/07/04 05:24:13;;;;;;;11.13;9.98;;;;;;;25.33;50.51;93165.53;5004848;28;20226;-72
2022/07/04 05:26:39;;;;;;;10.23;9.43;;;;;;;24.64;52.09;93161.13;5003735;28;20265;-72
2022/07/04 05:29:04;;;;;;;9.80;9.20;;;;;;;24.62;53.83;93139.31;5004713;28;20210;-72
2022/07/04 05:31:29;;;;;;;12.00;10.00;;;;;;;22.67;57.43;93125.56;5002125;28;20229;-73
2022/07/04 05:33:55;;;;;;;10.50;9.52;;;;;;;23.70;56.87;93141.91;5006109;28;20178;-73
2022/07/04 05:36:23;;;;;;;11.07;10.27;;;;;;;24.52;53.44;93133.78;5000924;28;20261;-74
2022/07/04 05:38:48;;;;;;;10.02;9.38;;;;;;;27.92;44.95;93153.94;4986440;28;20199;-69
2022/07/04 05:41:13;;;;;;;9.98;9.27;;;;;;;30.49;39.13;93160.84;5000625;28;20216;-74
2022/07/04 05:43:39;;;;;;;13.13;10.35;;;;;;;33.55;32.40;93172.75;5002940;28;20295;-73
2022/07/04 05:46:04;;;;;;;10.10;9.30;;;;;;;34.79;30.06;93183.16;5000226;28;20392;-74
2022/07/04 05:48:29;;;;;;;9.07;8.48;;;;;;;35.63;27.90;93178.00;5003551;28;20188;-73
2022/07/04 05:50:55;;;;;;;11.98;8.80;;;;;;;36.33;27.38;93184.56;5004126;28;20232;-74
2022/07/04 05:53:20;;;;;;;8.68;7.88;;;;;;;36.89;26.66;93188.59;5003260;28;20214;-74
2022/07/04 05:55:46;;;;;;;9.30;8.48;;;;;;;36.63;26.16;93197.78;5000801;28;20237;-73
2022/07/04 05:58:11;;;;;;;11.77;8.52;;;;;;;34.60;29.24;93192.81;5002430;28;20187;-72
2022/07/04 06:00:39;;;;;;;10.20;9.32;;;;;;;34.55;28.86;93198.72;5004607;28;20203;-72
2022/07/04 06:03:05;;;;;;;10.32;7.90;;;;;;;34.06;29.09;93194.06;5001909;28;20721;-73
2022/07/04 06:05:31;;;;;;;10.23;8.15;;;;;;;37.52;24.97;93200.44;5001095;28;20246;-73
2022/07/04 06:07:56;;;;;;;8.52;7.93;;;;;;;37.54;24.98;93198.06;5003580;28;20231;-72
2022/07/04 06:10:22;;;;;;;8.48;7.65;;;;;;;38.47;23.69;93206.50;5008018;28;20179;-72
2022/07/04 06:12:48;;;;;;;8.80;8.20;;;;;;;35.36;27.75;93187.13;5008294;28;20191;-72
2022/07/04 06:15:13;;;;;;;8.68;7.97;;;;;;;35.64;26.57;93191.91;5005054;28;20223;-76
2022/07/04 06:17:39;;;;;;;8.73;8.15;;;;;;;37.69;25.43;93206.59;5003171;28;20226;-75
2022/07/04 06:20:05;;;;;;;8.18;7.68;;;;;;;40.20;21.80;93206.56;5001866;28;20195;-74
2022/07/04 06:22:41;;;;;;;8.57;7.95;;;;;;;39.92;22.06;93213.91;5001420;28;20228;-75
2022/07/04 06:25:10;;;;;;;9.35;8.45;;;;;;;35.81;27.61;93162.06;5001076;28;21261;-80
2022/07/04 06:27:35;;;;;;;12.95;8.20;;;;;;;37.53;24.96;93161.06;4983402;28;20307;-76
2022/07/04 06:30:01;;;;;;;8.48;7.78;;;;;;;39.28;23.02;93197.50;5002284;28;20188;-76
2022/07/04 06:32:26;;;;;;;8.77;7.97;;;;;;;36.45;26.09;93173.00;5001449;28;20212;-76
2022/07/04 06:37:35;;;;;;;8.10;7.60;;;;;;;37.12;26.04;93177.44;5003297;28;20371;-76
2022/07/04 06:40:01;;;;;;;12.02;8.30;;;;;;;37.26;26.51;93185.25;5002687;28;20251;-77
2022/07/04 06:42:26;;;;;;;9.05;8.15;;;;;;;38.14;24.33;93197.03;5001164;28;20230;-76
2022/07/04 06:44:51;;;;;;;10.65;7.97;;;;;;;38.60;24.41;93167.50;4999362;28;20218;-76
2022/07/04 06:47:17;;;;;;;8.75;8.00;;;;;;;37.14;25.00;93179.72;4999569;28;20239;-76
2022/07/04 06:49:42;;;;;;;10.43;8.23;;;;;;;35.93;27.67;93189.38;5002477;28;20192;-76
2022/07/04 06:52:08;;;;;;;9.27;7.90;;;;;;;36.02;26.65;93177.91;4999598;28;20216;-75
2022/07/04 06:54:33;;;;;;;10.90;8.38;;;;;;;34.08;28.32;93149.13;5000790;28;20206;-75
2022/07/04 06:56:58;;;;;;;9.20;8.25;;;;;;;30.10;36.32;93144.72;4999511;28;20212;-76
2022/07/04 06:59:24;;;;;;;9.00;8.27;;;;;;;27.57;42.00;93121.41;5000188;28;20175;-76
2022/07/04 07:01:49;;;;;;;9.38;8.50;;;;;;;27.65;43.43;93131.06;4999696;28;20273;-76
2022/07/04 07:04:14;;;;;;;9.35;8.40;;;;;;;28.03;42.60;93154.78;5003980;28;20213;-76
2022/07/04 07:06:40;;;;;;;10.25;9.25;;;;;;;27.79;43.83;93137.31;4999105;28;20230;-77
2022/07/04 07:09:05;;;;;;;10.10;9.20;;;;;;;27.94;43.01;93130.16;5002988;28;20214;-75
2022/07/04 07:11:31;;;;;;;10.50;9.52;;;;;;;27.81;46.02;93137.72;4999251;28;20233;-76
2022/07/04 07:13:56;;;;;;;10.45;9.40;;;;;;;28.04;43.43;93135.63;5003657;28;20228;-76
2022/07/04 07:16:22;;;;;;;13.98;9.30;;;;;;;27.30;45.99;93118.13;4981490;28;20283;-77
2022/07/04 07:18:49;;;;;;;11.13;10.02;;;;;;;26.65;47.74;93135.78;5003631;28;20191;-76
2022/07/04 07:21:14;;;;;;;11.88;9.52;;;;;;;27.20;45.31;93134.06;4999218;28;20219;-77
2022/07/04 07:23:41;;;;;;;10.60;9.73;;;;;;;26.45;49.60;93127.09;5002924;28;20190;-76
2022/07/04 07:26:07;;;;;;;11.38;10.00;;;;;;;25.70;49.83;93120.28;5001282;28;20230;-76
2022/07/04 07:28:32;;;;;;;10.70;9.65;;;;;;;26.23;48.93;93106.53;5001023;28;20216;-75
2022/07/04 07:30:57;;;;;;;11.15;10.02;;;;;;;25.91;50.37;93125.94;4999133;28;20314;-73
2022/07/04 07:33:23;;;;;;;10.82;9.85;;;;;;;26.86;47.75;93130.69;5000213;28;20198;-73
2022/07/04 07:35:48;;;;;;;15.38;9.93;;;;;;;27.01;48.88;93120.84;5000578;28;20227;-76
2022/07/04 07:38:14;;;;;;;9.55;8.95;;;;;;;27.48;46.17;93124.41;5000392;28;20255;-73
2022/07/04 07:40:40;;;;;;;12.10;9.98;;;;;;;27.47;46.59;93132.84;4998622;28;20191;-72
2022/07/04 07:43:05;;;;;;;10.18;9.40;;;;;;;27.00;47.06;93120.09;5001412;28;20196;-73
2022/07/04 07:45:31;;;;;;;12.15;9.18;;;;;;;27.20;47.45;93132.19;4999797;28;20219;-72
2022/07/04 07:47:56;;;;;;;9.32;8.48;;;;;;;27.10;46.28;93124.03;4984116;28;20188;-73
2022/07/04 07:50:22;;;;;;;10.00;9.15;;;;;;;27.03;46.32;93129.31;5000274;28;20195;-73
2022/07/04 07:52:47;;;;;;;12.40;9.65;;;;;;;26.51;48.48;93120.28;5002789;28;20188;-72
2022/07/04 07:55:12;;;;;;;9.50;8.55;;;;;;;26.94;45.81;93118.13;5000632;28;20188;-71
2022/07/04 07:57:38;;;;;;;10.35;9.48;;;;;;;26.98;47.36;93121.59;4997511;28;20231;-70
2022/07/04 08:00:04;;;;;;;9.15;8.43;;;;;;;26.65;48.29;93125.06;5001125;28;20196;-69
2022/07/04 08:05:14;;;;;;;9.55;8.65;;;;;;;26.83;49.33;93122.59;5001833;28;20229;-70
2022/07/04 08:07:40;;;;;;;11.30;10.15;;;;;;;27.48;46.69;93124.41;5001428;28;20227;-70
2022/07/04 08:10:06;;;;;;;9.88;8.95;;;;;;;27.42;46.31;93111.72;5003602;28;20186;-70
2022/07/04 08:12:32;;;;;;;9.95;9.30;;;;;;;27.03;47.86;93113.22;5000948;28;20238;-70
2022/07/04 08:14:57;;;;;;;10.27;9.38;;;;;;;27.44;45.36;93120.16;4999705;28;20211;-70
2022/07/04 08:17:23;;;;;;;11.07;9.57;;;;;;;27.19;47.28;93121.81;5002063;28;20219;-70
2022/07/04 08:19:49;;;;;;;10.15;9.35;;;;;;;27.10;46.87;93127.47;4999559;28;20251;-69
2022/07/04 08:22:15;;;;;;;11.23;10.23;;;;;;;26.70;48.26;93112.13;5002641;28;20311;-70
2022/07/04 08:24:40;;;;;;;10.05;9.18;;;;;;;27.21;47.51;93108.81;5006718;28;20210;-69
2022/07/04 08:27:06;;;;;;;9.70;8.98;;;;;;;27.60;46.89;93121.44;5006026;28;20215;-70
2022/07/04 08:29:32;;;;;;;10.27;8.98;;;;;;;27.68;48.62;93127.63;5003907;28;20211;-69
2022/07/04 08:31:58;;;;;;;11.23;10.00;;;;;;;27.84;47.39;93106.69;5003689;28;20226;-68
2022/07/04 08:34:23;;;;;;;10.70;9.88;;;;;;;27.05;48.41;93111.75;5003930;28;20192;-70
2022/07/04 08:36:48;;;;;;;10.43;9.60;;;;;;;27.40;48.97;93108.63;5004231;28;20238;-69
2022/07/04 08:39:14;;;;;;;10.02;9.10;;;;;;;27.86;46.66;93109.75;5003312;28;20231;-71
2022/07/04 08:41:41;;;;;;;10.55;9.75;;;;;;;27.63;46.98;93098.47;5003855;28;20219;-70
2022/07/04 08:44:11;;;;;;;10.85;10.05;;;;;;;27.66;47.74;93108.47;5004956;28;20200;-69
2022/07/04 08:46:39;;;;;;;12.18;10.20;;;;;;;27.54;47.63;93106.06;5005697;28;20258;-69
2022/07/04 08:49:12;;;;;;;13.88;9.63;;;;;;;27.80;48.06;93103.22;5003338;28;20207;-75
2022/07/04 08:51:47;;;;;;;11.65;10.50;;;;;;;27.94;48.91;93112.13;5003956;28;20273;-71
2022/07/04 08:59:45;;;;;;;13.90;10.38;;;;;;;28.00;47.31;93110.63;5003929;28;20198;-73
2022/07/04 09:02:14;;;;;;;10.70;9.90;;;;;;;28.18;48.35;93108.06;5004489;28;20227;-73
2022/07/04 09:04:41;;;;;;;10.38;9.60;;;;;;;27.99;46.22;93106.44;5002108;28;20207;-72
2022/07/04 09:07:06;;;;;;;10.40;9.48;;;;;;;27.84;46.50;93088.66;5000449;28;20235;-74
2022/07/04 09:09:33;;;;;;;10.73;9.43;;;;;;;28.01;46.54;93100.69;5003903;28;20184;-72
2022/07/04 09:11:58;;;;;;;11.73;8.95;;;;;;;28.19;45.46;93098.84;4999812;28;20231;-73
2022/07/04 09:14:24;;;;;;;11.00;10.20;;;;;;;28.34;45.66;93099.72;5001962;28;20191;-74
2022/07/04 09:16:53;;;;;;;11.63;10.60;;;;;;;28.51;44.24;93091.75;5003637;28;20224;-73
2022/07/04 09:19:21;;;;;;;10.10;9.40;;;;;;;28.59;45.93;93085.28;5002228;28;20187;-72
2022/07/04 09:21:47;;;;;;;10.77;9.90;;;;;;;28.52;44.40;93104.03;5003374;28;20261;-73
2022/07/04 09:24:13;;;;;;;10.73;9.73;;;;;;;28.20;46.04;93078.94;5001732;28;20247;-73
2022/07/04 09:26:46;;;;;;;10.57;9.57;;;;;;;28.38;45.59;93095.88;5002395;28;20250;-72
2022/07/04 09:29:11;;;;;;;10.35;9.65;;;;;;;28.61;44.01;93103.69;5004693;28;20195;-73
2022/07/04 09:31:38;;;;;;;10.90;10.00;;;;;;;28.76;43.65;93100.69;5002331;28;20259;-72
2022/07/04 09:34:07;;;;;;;10.23;9.43;;;;;;;28.59;45.55;93087.19;5000970;28;20195;-73
2022/07/04 09:36:35;;;;;;;10.77;9.75;;;;;;;28.74;44.68;93105.66;5004139;28;20219;-72
2022/07/04 09:39:14;;;;;;;10.23;9.43;;;;;;;28.77;45.05;93094.16;5000454;28;20198;-73
2022/07/04 09:42:00;;;;;;;10.68;9.88;;;;;;;28.77;44.98;93096.06;5003312;28;20250;-73
2022/07/04 09:44:28;;;;;;;9.73;9.02;;;;;;;28.83;42.94;93089.94;5000343;28;20207;-73
2022/07/04 09:46:55;;;;;;;9.95;9.35;;;;;;;28.62;45.35;93087.19;5002177;28;20247;-74
2022/07/04 09:49:21;;;;;;;10.40;9.50;;;;;;;28.67;44.83;93078.75;5001003;28;20198;-73
2022/07/04 09:51:52;;;;;;;10.60;9.75;;;;;;;28.81;44.77;93080.72;5003230;28;20219;-74
2022/07/04 09:54:27;;;;;;;9.65;9.05;;;;;;;28.67;45.52;93086.81;5005678;28;20191;-73
2022/07/04 09:56:58;;;;;;;11.82;10.93;;;;;;;28.94;45.56;93084.59;5004155;28;20225;-73
2022/07/04 09:59:24;;;;;;;11.38;10.48;;;;;;;28.58;45.67;93072.97;5001726;28;20192;-72
2022/07/04 10:01:51;;;;;;;11.30;10.43;;;;;;;28.62;47.58;93089.88;5002344;28;20286;-72
2022/07/04 10:04:17;;;;;;;10.95;10.07;;;;;;;28.67;46.78;93081.44;5003687;28;20199;-73
2022/07/04 10:06:44;;;;;;;11.88;10.88;;;;;;;28.98;45.08;93094.19;4999269;28;20235;-74
2022/07/04 10:09:14;;;;;;;10.50;9.40;;;;;;;29.06;45.39;93093.09;5004698;28;20202;-74
2022/07/04 10:11:42;;;;;;;10.52;9.73;;;;;;;29.08;45.37;93096.19;4999607;28;20331;-73
2022/07/04 10:14:09;;;;;;;10.35;9.55;;;;;;;28.84;44.55;93093.41;5002167;28;20207;-73
2022/07/04 10:16:36;;;;;;;9.50;8.82;;;;;;;28.49;45.77;93069.88;5004618;28;20238;-73
2022/07/04 10:19:02;;;;;;;11.65;10.52;;;;;;;28.87;44.61;93101.50;4984835;28;20255;-73
2022/07/04 10:21:29;;;;;;;10.35;9.55;;;;;;;29.14;43.87;93102.72;5003487;28;20215;-73
2022/07/04 10:23:54;;;;;;;10.38;9.48;;;;;;;29.11;43.41;93098.09;5002472;28;20183;-73
2022/07/04 10:26:21;;;;;;;10.15;9.45;;;;;;;29.15;45.41;93095.44;5001285;28;20305;-73
2022/07/04 10:28:47;;;;;;;10.43;9.73;;;;;;;28.92;44.63;93090.34;5002932;28;20216;-73
2022/07/04 10:31:14;;;;;;;9.77;8.98;;;;;;;29.54;43.69;93102.38;5002056;28;20224;-73
2022/07/04 10:33:40;;;;;;;11.70;10.73;;;;;;;29.59;45.24;93088.53;5001663;28;20201;-73
2022/07/04 10:36:20;;;;;;;11.30;10.50;;;;;;;30.10;44.35;93092.75;5002662;28;20226;-73
2022/07/04 10:39:03;;;;;;;10.68;9.45;;;;;;;30.16;40.67;93066.94;5004384;28;20222;-75
2022/07/04 10:41:30;;;;;;;9.68;8.98;;;;;;;29.53;43.18;93092.00;4983046;28;20223;-73
2022/07/04 10:44:01;;;;;;;9.80;9.20;;;;;;;29.60;44.29;93079.28;4983444;28;20230;-73
2022/07/04 10:46:42;;;;;;;9.63;9.00;;;;;;;29.48;43.22;93070.88;4989467;28;20236;-74
2022/07/04 10:49:18;;;;;;;10.15;9.45;;;;;;;29.67;40.54;93062.41;5002633;28;20194;-71
2022/07/04 10:51:48;;;;;;;12.10;10.73;;;;;;;29.73;42.06;93076.25;5000224;28;20234;-73
2022/07/04 10:54:13;;;;;;;9.98;9.32;;;;;;;29.56;42.96;93075.06;5000850;28;20195;-73
2022/07/04 10:56:57;;;;;;;10.57;9.77;;;;;;;29.57;41.62;93063.91;5001388;28;20238;-73
2022/07/04 10:59:28;;;;;;;10.40;9.70;;;;;;;29.38;41.95;93077.78;4990303;28;20824;-73
2022/07/04 11:02:13;;;;;;;10.85;9.95;;;;;;;29.24;42.03;93071.63;4999757;28;20219;-74
2022/07/04 11:05:06;;;;;;;10.60;9.90;;;;;;;28.98;44.99;93067.31;4999842;28;20293;-74
2022/07/04 11:07:40;;;;;;;10.82;9.82;;;;;;;28.95;45.56;93057.31;5000983;28;20231;-73
2022/07/04 11:13:02;;;;;;;10.68;9.85;;;;;;;29.24;41.55;93056.25;5001970;28;20247;-72
2022/07/04 11:15:27;;;;;;;10.15;9.35;;;;;;;29.22;42.13;93057.75;5001365;28;20208;-74
2022/07/04 11:17:55;;;;;;;10.80;10.00;;;;;;;29.32;41.87;93052.41;5000488;28;20184;-73
2022/07/04 11:20:22;;;;;;;10.27;9.57;;;;;;;29.36;41.65;93037.03;5003386;28;20180;-73
2022/07/04 11:22:48;;;;;;;10.05;9.40;;;;;;;29.49;41.01;93048.94;4999819;28;20212;-73
2022/07/04 11:25:14;;;;;;;10.43;9.52;;;;;;;29.16;41.53;93021.66;5002837;28;20294;-73
2022/07/04 11:27:40;;;;;;;10.90;10.00;;;;;;;29.56;40.91;93050.84;5001663;28;20222;-73
2022/07/04 11:30:06;;;;;;;11.20;9.63;;;;;;;29.45;41.11;93045.47;4999719;28;20218;-74
2022/07/04 11:32:34;;;;;;;10.52;9.63;;;;;;;29.22;43.03;93055.84;4998973;28;20228;-73
2022/07/04 11:35:00;;;;;;;11.02;10.13;;;;;;;29.00;42.80;93054.25;4999865;28;20215;-73
2022/07/04 11:37:26;;;;;;;10.70;9.70;;;;;;;28.81;43.05;93054.59;4998601;28;20215;-73
2022/07/04 11:39:53;;;;;;;10.55;9.73;;;;;;;29.02;43.32;93049.28;5002081;28;20191;-73